Time;durP1;ratioP1;P1;durP2;ratioP2;P2;SDS_P1;SDS_P2;PMS_P1;PMS_P2;Temp;Humidity;BMP_temperature;BMP_pressure;BME280_temperature;BME280_humidity;BME280_pressure;Samples;Min_cycle;Max_cycle;Signal;HPM_P1;HPM_P2
2023/10/12 00:01:01;;;;;;;;;9.00;9.00;;;;;20.77;100.00;98649.97;6236242;28;97096;-69
2023/10/12 00:04:07;;;;;;;;;11.00;9.40;;;;;20.77;100.00;98650.75;6234833;27;97140;-70
2023/10/12 00:07:15;;;;;;;;;7.25;7.00;;;;;20.75;100.00;98645.59;6211927;28;97530;-69
2023/10/12 00:10:21;;;;;;;;;7.00;7.00;;;;;20.70;100.00;98644.84;6193520;28;97933;-70
2023/10/12 00:13:29;;;;;;;;;7.00;7.00;;;;;20.69;100.00;98644.03;6216284;28;96548;-68
2023/10/12 00:16:32;;;;;;;;;7.25;6.25;;;;;20.60;100.00;98628.53;6237061;28;98035;-69
2023/10/12 00:19:38;;;;;;;;;8.00;7.00;;;;;20.67;100.00;98643.47;6217700;27;98493;-70
2023/10/12 00:22:41;;;;;;;;;9.75;9.00;;;;;20.67;100.00;98640.75;6234749;28;96655;-70
2023/10/12 00:25:54;;;;;;;;;10.00;8.60;;;;;20.76;100.00;98643.66;6219406;28;96876;-70
2023/10/12 00:28:59;;;;;;;;;6.60;6.00;;;;;20.81;100.00;98637.31;6238667;28;97147;-70
2023/10/12 00:32:03;;;;;;;;;8.50;8.00;;;;;20.83;100.00;98629.59;6236166;28;97085;-70
2023/10/12 00:35:10;;;;;;;;;7.00;6.00;;;;;20.81;100.00;98638.13;6241952;27;97303;-70
2023/10/12 00:38:17;;;;;;;;;8.25;7.00;;;;;20.73;100.00;98634.09;6216902;28;96877;-70
2023/10/12 00:41:24;;;;;;;;;10.20;8.40;;;;;20.60;100.00;98631.25;6237472;28;97224;-70
2023/10/12 00:44:34;;;;;;;;;7.00;7.00;;;;;20.46;100.00;98627.59;6219651;28;96321;-68
2023/10/12 00:47:44;;;;;;;;;7.00;7.00;;;;;20.35;100.00;98626.09;6237508;28;96849;-70
2023/10/12 00:50:49;;;;;;;;;7.00;7.00;;;;;20.27;100.00;98628.34;6252888;27;97641;-70
2023/10/12 00:53:56;;;;;;;;;6.00;5.00;;;;;20.20;100.00;98627.88;6217797;28;97696;-70
2023/10/12 00:57:02;;;;;;;;;7.00;6.80;;;;;20.14;100.00;98623.53;6218731;28;96900;-70
2023/10/12 01:00:15;;;;;;;;;6.00;5.00;;;;;20.09;100.00;98622.78;6237718;28;96907;-70
2023/10/12 01:03:35;;;;;;;;;9.00;6.40;;;;;20.08;100.00;98621.16;6319574;22;98096;-68
2023/10/12 01:06:40;;;;;;;;;7.00;7.00;;;;;20.02;100.00;98616.84;6169393;28;97736;-67
2023/10/12 01:09:46;;;;;;;;;6.25;6.00;;;;;20.00;100.00;98619.88;6234903;27;96251;-67
2023/10/12 01:12:50;;;;;;;;;7.00;6.80;;;;;19.97;100.00;98614.97;6235130;28;96648;-67
2023/10/12 01:15:56;;;;;;;;;7.40;6.40;;;;;19.95;100.00;98613.63;6189446;28;96210;-67
2023/10/12 01:19:05;;;;;;;;;7.40;7.40;;;;;19.96;100.00;98616.06;6193396;28;99619;-67
2023/10/12 01:22:12;;;;;;;;;8.60;7.60;;;;;19.93;100.00;98619.41;6208749;28;97340;-65
2023/10/12 01:25:21;;;;;;;;;6.80;6.80;;;;;19.92;100.00;98622.41;6194698;28;96445;-67
2023/10/12 01:28:25;;;;;;;;;5.00;4.00;;;;;19.86;100.00;98616.19;6212299;28;97217;-67
2023/10/12 01:31:29;;;;;;;;;6.25;6.00;;;;;19.78;100.00;98616.81;6210963;28;96368;-64
2023/10/12 01:34:36;;;;;;;;;6.50;6.50;;;;;19.68;100.00;98606.78;6228513;28;96583;-65
2023/10/12 01:37:48;;;;;;;;;8.00;7.00;;;;;19.72;100.00;98613.31;6238417;28;96814;-65
2023/10/12 01:40:54;;;;;;;;;7.00;7.00;;;;;19.67;100.00;98615.25;6206257;28;96652;-65
2023/10/12 01:43:58;;;;;;;;;5.75;5.75;;;;;19.60;100.00;98617.50;6223053;28;96321;-65
2023/10/12 01:47:01;;;;;;;;;6.80;5.20;;;;;19.57;100.00;98613.44;6222300;28;96950;-66
2023/10/12 01:50:08;;;;;;;;;7.00;6.00;;;;;19.46;100.00;98599.03;6222520;28;96513;-65
2023/10/12 01:53:25;;;;;;;;;6.40;5.40;;;;;19.52;100.00;98608.00;6234136;28;96603;-65
2023/10/12 01:56:29;;;;;;;;;7.60;7.00;;;;;19.50;100.00;98615.66;6240449;28;96580;-65
2023/10/12 01:59:34;;;;;;;;;7.00;7.00;;;;;19.41;100.00;98606.44;6198913;28;97303;-66
2023/10/12 02:02:40;;;;;;;;;8.00;7.00;;;;;19.43;100.00;98604.22;6221587;28;97226;-66
2023/10/12 02:05:50;;;;;;;;;5.75;5.75;;;;;19.41;100.00;98606.44;6243657;27;96485;-67
2023/10/12 02:08:54;;;;;;;;;6.40;6.00;;;;;19.41;100.00;98604.50;6237965;27;97440;-65
2023/10/12 02:12:09;;;;;;;;;8.00;8.00;;;;;19.45;100.00;98597.41;6239532;28;96535;-65
2023/10/12 02:15:15;;;;;;;;;5.60;5.00;;;;;19.55;100.00;98601.97;6204451;28;96884;-68
2023/10/12 02:18:19;;;;;;;;;7.00;7.00;;;;;19.57;100.00;98594.28;6208292;28;96711;-68
2023/10/12 02:21:25;;;;;;;;;8.80;8.00;;;;;19.62;100.00;98588.78;6221158;28;96802;-68
2023/10/12 02:24:30;;;;;;;;;8.00;7.00;;;;;19.75;100.00;98598.22;6221043;28;98033;-68
2023/10/12 02:27:34;;;;;;;;;6.00;6.00;;;;;19.78;100.00;98592.19;6224663;28;96761;-68
2023/10/12 02:30:37;;;;;;;;;8.40;8.00;;;;;19.85;100.00;98592.66;6221389;28;96590;-68
2023/10/12 02:33:42;;;;;;;;;6.40;6.40;;;;;19.84;100.00;98594.56;6208579;28;99086;-68
2023/10/12 02:37:00;;;;;;;;;8.00;8.00;;;;;19.82;100.00;98588.59;6239975;28;96401;-68
2023/10/12 02:40:12;;;;;;;;;6.00;6.00;;;;;19.80;100.00;98585.31;6221089;28;96460;-68
2023/10/12 02:43:15;;;;;;;;;8.00;7.40;;;;;19.84;100.00;98585.56;6220731;27;97351;-68
2023/10/12 02:46:22;;;;;;;;;6.75;6.75;;;;;19.83;100.00;98576.56;6220062;27;96596;-68
2023/10/12 02:49:26;;;;;;;;;4.40;4.00;;;;;19.87;100.00;98585.00;6203964;28;96591;-68
2023/10/12 02:52:31;;;;;;;;;8.00;6.00;;;;;19.88;100.00;98576.50;6238088;28;96383;-68
2023/10/12 02:55:40;;;;;;;;;6.40;5.20;;;;;19.92;100.00;98578.66;6219223;28;96635;-68
2023/10/12 02:58:45;;;;;;;;;7.00;7.00;;;;;19.93;100.00;98577.53;6243063;27;97780;-68
2023/10/12 03:01:59;;;;;;;;;7.00;6.00;;;;;19.93;100.00;98572.06;6212076;28;96725;-68
2023/10/12 03:05:06;;;;;;;;;9.00;7.75;;;;;19.86;100.00;98564.19;6229265;28;96320;-68
2023/10/12 03:08:14;;;;;;;;;9.00;8.50;;;;;19.84;100.00;98558.22;6221203;28;96267;-68
2023/10/12 03:11:25;;;;;;;;;9.00;9.00;;;;;19.89;100.00;98553.47;6206820;28;100099;-68
2023/10/12 03:14:29;;;;;;;;;9.33;8.00;;;;;19.89;100.00;98552.66;6227166;28;96512;-68
2023/10/12 03:17:33;;;;;;;;;9.00;9.00;;;;;19.87;100.00;98555.72;6234689;27;96754;-68
2023/10/12 03:20:37;;;;;;;;;7.40;7.40;;;;;19.90;100.00;98552.38;6219752;28;99267;-68
2023/10/12 03:23:46;;;;;;;;;8.00;7.00;;;;;19.93;100.00;98545.53;6243712;27;96213;-67
2023/10/12 03:26:57;;;;;;;;;8.00;7.75;;;;;19.96;100.00;98553.16;6226679;27;96832;-65
2023/10/12 03:30:07;;;;;;;;;10.00;9.00;;;;;20.00;100.00;98553.38;6200528;28;96960;-68
2023/10/12 03:33:14;;;;;;;;;11.00;10.00;;;;;20.04;100.00;98544.28;6234956;28;97649;-65
2023/10/12 03:36:22;;;;;;;;;9.00;8.00;;;;;20.02;100.00;98542.97;6216314;27;96483;-67
2023/10/12 03:39:27;;;;;;;;;8.00;7.00;;;;;20.04;100.00;98544.28;6236608;28;96605;-65
2023/10/12 03:46:00;;;;;;;;;11.50;11.00;;;;;19.96;100.00;98534.00;6219476;27;97707;-67
2023/10/12 03:49:09;;;;;;;;;9.00;8.00;;;;;19.98;100.00;98533.72;6214831;28;96606;-67
2023/10/12 03:52:14;;;;;;;;;11.60;9.60;;;;;20.03;100.00;98536.41;6186157;28;98708;-67
2023/10/12 03:55:25;;;;;;;;;9.60;9.60;;;;;19.96;100.00;98535.91;6228942;27;96541;-66
2023/10/12 03:58:37;;;;;;;;;10.40;9.00;;;;;19.93;100.00;98531.84;6239348;27;96839;-67
2023/10/12 04:01:41;;;;;;;;;11.00;9.80;;;;;19.93;100.00;98531.03;6237765;27;96406;-66
2023/10/12 04:04:53;;;;;;;;;8.40;8.00;;;;;19.94;100.00;98529.94;6216070;28;100397;-65
2023/10/12 04:08:12;;;;;;;;;9.67;8.67;;;;;19.93;100.00;98528.28;6219967;28;97501;-66
2023/10/12 04:14:49;;;;;;;;;7.00;7.00;;;;;19.85;100.00;98525.09;6236436;28;96597;-67
2023/10/12 04:17:53;;;;;;;;;10.00;9.00;;;;;19.89;100.00;98534.34;6235638;27;96379;-67
2023/10/12 04:20:57;;;;;;;;;7.60;7.00;;;;;19.87;100.00;98524.81;6233838;27;97309;-67
2023/10/12 04:31:12;;;;;;;;;8.00;8.00;;;;;19.90;100.00;98524.22;6199945;28;96953;-66
2023/10/12 04:34:05;;;;;;;;;7.75;7.50;;;;;19.91;100.00;98528.59;6236898;28;96886;-72
2023/10/12 04:37:10;;;;;;;;;9.00;8.00;;;;;20.00;100.00;98529.56;6240967;27;96144;-72
2023/10/12 04:40:33;;;;;;;;;9.00;9.00;;;;;20.07;100.00;98521.00;6236269;27;96685;-71
2023/10/12 04:43:36;;;;;;;;;9.00;8.00;;;;;20.01;100.00;98528.47;6202958;28;96958;-71
2023/10/12 04:46:47;;;;;;;;;9.75;8.75;;;;;20.01;100.00;98528.47;6234924;27;96928;-72
2023/10/12 04:49:57;;;;;;;;;8.20;8.20;;;;;20.01;100.00;98513.97;6193100;28;99009;-72
2023/10/12 04:53:08;;;;;;;;;9.00;9.00;;;;;20.05;100.00;98513.09;6219140;28;96450;-70
2023/10/12 04:56:11;;;;;;;;;11.00;8.80;;;;;20.06;100.00;98514.72;6234347;28;96270;-71
2023/10/12 04:59:17;;;;;;;;;7.00;7.00;;;;;20.01;100.00;98513.97;6235669;27;97564;-72
2023/10/12 05:02:30;;;;;;;;;9.80;8.40;;;;;19.97;100.00;98519.22;6235073;28;97179;-72
2023/10/12 05:08:57;;;;;;;;;10.40;8.40;;;;;20.10;100.00;98523.16;6228928;27;96354;-72
2023/10/12 05:12:01;;;;;;;;;10.00;9.00;;;;;20.05;100.00;98504.06;6234629;28;96665;-72
2023/10/12 05:15:11;;;;;;;;;8.20;7.20;;;;;20.20;100.00;98521.13;6236796;28;96158;-72
2023/10/12 05:18:17;;;;;;;;;11.20;10.20;;;;;20.27;100.00;98510.63;6236173;28;96383;-72
2023/10/12 05:21:21;;;;;;;;;9.00;9.00;;;;;20.36;100.00;98519.03;6235518;27;96340;-72
2023/10/12 05:24:24;;;;;;;;;11.00;9.00;;;;;20.41;100.00;98523.63;6248152;27;97201;-72
2023/10/12 05:27:33;;;;;;;;;9.00;7.00;;;;;20.56;100.00;98517.94;6228333;28;98443;-72
2023/10/12 05:30:37;;;;;;;;;8.00;7.80;;;;;20.71;100.00;98523.19;6236543;28;96335;-71
2023/10/12 05:34:00;;;;;;;;;8.20;8.20;;;;;20.83;100.00;98520.00;6237256;28;96307;-72
2023/10/12 05:37:08;;;;;;;;;9.00;7.80;;;;;20.91;100.00;98508.38;6235317;28;96635;-72
2023/10/12 05:40:15;;;;;;;;;8.00;7.00;;;;;21.04;100.00;98510.34;6233665;28;96642;-72
2023/10/12 05:43:22;;;;;;;;;8.80;7.00;;;;;21.22;100.00;98511.44;6227822;27;96751;-66
2023/10/12 05:46:29;;;;;;;;;9.00;8.00;;;;;21.37;100.00;98506.53;6231995;28;96340;-66
2023/10/12 05:49:34;;;;;;;;;9.00;8.00;;;;;21.52;100.00;98508.19;6223020;28;98254;-66
2023/10/12 05:52:39;;;;;;;;;9.00;7.67;;;;;21.68;100.00;98504.06;6208701;28;99581;-66
2023/10/12 05:55:47;;;;;;;;;8.33;7.00;;;;;21.89;100.00;98504.47;6231439;28;96961;-67
2023/10/12 05:58:50;;;;;;;;;9.00;7.00;;;;;22.17;100.00;98508.06;6217972;28;97302;-66
2023/10/12 06:01:54;;;;;;;;;9.00;8.00;;;;;22.28;100.00;98502.06;6234458;28;97584;-66
2023/10/12 06:04:58;;;;;;;;;9.00;8.00;;;;;22.33;100.00;98485.44;6220245;28;96488;-67
2023/10/12 06:08:07;;;;;;;;;10.75;10.25;;;;;22.64;100.00;98496.56;6232698;28;96612;-67
2023/10/12 06:11:11;;;;;;;;;7.80;7.00;;;;;23.00;100.00;98498.50;6193534;28;99411;-66
2023/10/12 06:14:15;;;;;;;;;8.00;7.40;;;;;23.31;100.00;98497.44;6228312;27;96447;-66
2023/10/12 06:17:28;;;;;;;;;10.60;9.00;;;;;23.78;100.00;98499.81;6219978;27;97078;-66
2023/10/12 06:20:36;;;;;;;;;8.00;8.00;;;;;24.14;100.00;98495.72;6247069;27;97159;-67
2023/10/12 06:23:43;;;;;;;;;6.80;6.00;;;;;23.82;100.00;98506.31;6247403;27;96876;-67
2023/10/12 06:26:47;;;;;;;;;6.60;6.60;;;;;23.68;100.00;98498.97;6247968;27;96403;-66
2023/10/12 06:29:52;;;;;;;;;9.00;9.00;;;;;23.56;100.00;98501.50;6266504;27;96381;-66
2023/10/12 06:32:59;;;;;;;;;7.00;6.60;;;;;23.44;100.00;98504.00;6266272;27;97010;-67
2023/10/12 06:36:04;;;;;;;;;8.00;7.00;;;;;23.53;100.00;98504.88;6231416;28;99034;-67
2023/10/12 06:42:37;;;;;;;;;8.00;8.00;;;;;24.13;100.00;98509.84;6232336;28;96366;-67
2023/10/12 06:45:47;;;;;;;;;9.00;8.00;;;;;24.49;100.00;98512.38;6239637;28;96921;-67
2023/10/12 06:48:58;;;;;;;;;7.80;7.00;;;;;24.81;100.00;98511.13;6239216;27;97152;-68
2023/10/12 06:52:04;;;;;;;;;6.60;6.60;;;;;24.91;100.00;98516.34;6222745;28;96556;-65
2023/10/12 06:55:08;;;;;;;;;8.00;7.00;;;;;24.70;100.00;98515.31;6222293;28;97121;-66
2023/10/12 06:58:14;;;;;;;;;9.00;8.00;;;;;25.65;100.00;98516.94;6238529;27;96305;-68
2023/10/12 07:01:21;;;;;;;;;10.00;10.00;;;;;28.01;100.00;98513.38;6238576;28;96563;-68
2023/10/12 07:04:27;;;;;;;;;8.00;7.80;;;;;30.32;97.76;98534.03;6229875;28;96831;-67
2023/10/12 07:07:41;;;;;;;;;7.40;6.40;;;;;30.96;90.49;98537.16;6211390;28;96304;-66
2023/10/12 07:10:54;;;;;;;;;7.00;6.00;;;;;31.34;91.27;98525.25;6224548;28;96682;-67
2023/10/12 07:14:04;;;;;;;;;6.00;5.00;;;;;31.41;87.16;98527.38;6220034;28;96593;-67
2023/10/12 07:17:08;;;;;;;;;5.00;5.00;;;;;32.95;84.18;98526.84;6238291;28;96282;-67
2023/10/12 07:20:25;;;;;;;;;7.20;6.00;;;;;32.83;81.35;98522.31;6217597;28;96635;-67
2023/10/12 07:23:35;;;;;;;;;5.00;5.00;;;;;32.28;84.36;98531.38;6194668;28;97000;-68
2023/10/12 07:26:48;;;;;;;;;8.00;7.00;;;;;32.27;84.74;98527.78;6214996;28;96535;-68
2023/10/12 07:30:09;;;;;;;;;7.00;6.00;;;;;33.38;78.48;98533.81;6212395;28;96420;-67
2023/10/12 07:33:12;;;;;;;;;5.80;4.80;;;;;35.39;70.92;98498.22;6195757;28;97074;-68
2023/10/12 07:36:17;;;;;;;;;5.40;5.00;;;;;37.22;60.47;98538.00;6213707;28;96624;-68
2023/10/12 07:39:26;;;;;;;;;6.80;6.40;;;;;38.33;57.63;98525.69;6214386;28;96775;-68
2023/10/12 07:42:31;;;;;;;;;6.00;6.00;;;;;37.89;58.89;98525.59;6195866;28;96656;-67
2023/10/12 07:45:40;;;;;;;;;6.00;5.00;;;;;36.59;64.51;98524.84;6196093;28;96835;-68
2023/10/12 07:48:45;;;;;;;;;4.60;4.00;;;;;34.78;72.76;98521.56;6214910;28;96259;-67
2023/10/12 07:51:59;;;;;;;;;6.00;5.00;;;;;33.76;77.51;98518.69;6214180;28;96672;-67
2023/10/12 07:55:07;;;;;;;;;4.00;4.00;;;;;33.30;79.27;98526.50;6196964;28;96256;-67
2023/10/12 07:58:12;;;;;;;;;6.00;5.60;;;;;32.39;81.24;98522.00;6207796;28;96300;-67
2023/10/12 08:01:38;;;;;;;;;7.00;6.00;;;;;32.41;83.47;98524.41;6200653;28;96847;-67
2023/10/12 08:04:56;;;;;;;;;6.00;5.00;;;;;32.67;81.66;98533.63;6192191;28;96974;-72
2023/10/12 08:08:08;;;;;;;;;5.00;5.00;;;;;34.15;76.41;98522.66;6212104;28;96728;-72
2023/10/12 08:11:32;;;;;;;;;8.00;7.00;;;;;36.15;69.48;98520.47;6226354;28;96444;-72
2023/10/12 08:14:41;;;;;;;;;6.00;6.00;;;;;38.49;55.59;98514.72;6235553;28;96739;-72
2023/10/12 08:17:45;;;;;;;;;5.20;4.80;;;;;39.88;50.16;98516.69;6236660;28;96401;-71
2023/10/12 08:20:53;;;;;;;;;8.00;6.00;;;;;40.93;40.37;98507.63;6234331;28;97317;-71
2023/10/12 08:24:04;;;;;;;;;6.60;6.00;;;;;42.10;37.26;98504.31;6234693;28;96766;-73
2023/10/12 08:27:11;;;;;;;;;5.00;4.00;;;;;42.96;36.24;98501.66;6232707;28;96659;-71
2023/10/12 08:30:22;;;;;;;;;6.00;5.60;;;;;43.53;32.04;98515.03;6234648;28;96930;-71
2023/10/12 08:37:17;;;;;;;;;4.75;4.75;;;;;44.37;29.57;98501.41;6238158;28;96479;-72
2023/10/12 08:40:19;;;;;;;;;5.50;5.00;;;;;44.23;31.29;98502.66;6236334;28;96695;-72
2023/10/12 08:43:42;;;;;;;;;6.00;6.00;;;;;43.92;31.75;98498.84;6237821;27;96285;-72
2023/10/12 08:46:56;;;;;;;;;5.00;5.00;;;;;44.52;31.23;98493.19;6223853;28;96157;-72
2023/10/12 08:50:08;;;;;;;;;6.00;5.20;;;;;45.15;29.39;98493.75;6213661;28;96536;-71
2023/10/12 08:53:19;;;;;;;;;7.00;5.60;;;;;45.35;27.51;98489.78;6213269;28;96871;-72
2023/10/12 08:56:26;;;;;;;;;8.25;6.75;;;;;45.21;28.35;98488.25;6211184;28;96856;-72
2023/10/12 08:59:38;;;;;;;;;6.00;6.00;;;;;45.29;27.76;98506.66;6194475;28;97243;-72
2023/10/12 09:02:41;;;;;;;;;6.00;5.00;;;;;45.03;27.58;98511.69;6211363;28;100314;-71
2023/10/12 09:05:46;;;;;;;;;5.75;5.00;;;;;45.22;27.81;98496.31;6210384;28;98450;-72
2023/10/12 09:08:56;;;;;;;;;6.00;5.20;;;;;45.57;28.45;98504.78;6212515;28;96452;-72
2023/10/12 09:11:59;;;;;;;;;6.00;5.00;;;;;46.02;27.19;98498.50;6234756;28;96496;-71
2023/10/12 09:15:09;;;;;;;;;5.00;5.00;;;;;45.84;26.64;98495.59;6236867;28;96366;-72
2023/10/12 09:18:14;;;;;;;;;6.00;5.00;;;;;44.86;28.64;98502.53;6236231;28;98591;-72
2023/10/12 09:21:27;;;;;;;;;5.67;5.00;;;;;44.30;29.73;98501.66;6237523;27;96460;-72
2023/10/12 09:24:35;;;;;;;;;4.25;3.75;;;;;43.43;32.30;98492.63;6199432;28;98673;-71
2023/10/12 09:27:49;;;;;;;;;5.40;5.00;;;;;42.31;33.33;98483.97;6194687;28;96947;-71
2023/10/12 09:31:00;;;;;;;;;7.00;7.00;;;;;42.35;34.01;98493.19;6210794;28;96544;-71
2023/10/12 09:34:31;;;;;;;;;4.80;4.80;;;;;42.85;33.12;98491.88;6212380;28;96269;-71
2023/10/12 09:37:43;;;;;;;;;6.00;6.00;;;;;42.11;34.77;98492.56;6226955;28;96371;-71
2023/10/12 09:40:52;;;;;;;;;6.00;6.00;;;;;42.08;33.23;98492.66;6219092;28;96279;-71
2023/10/12 09:43:57;;;;;;;;;6.40;5.40;;;;;41.58;33.67;98498.66;6236025;28;96356;-71
2023/10/12 09:47:09;;;;;;;;;6.00;5.00;;;;;41.98;29.79;98493.69;6235720;28;96524;-68
2023/10/12 09:50:16;;;;;;;;;5.50;5.00;;;;;42.19;29.28;98488.28;6236945;28;96274;-68
2023/10/12 09:53:24;;;;;;;;;6.00;5.40;;;;;42.49;28.45;98509.81;6219696;28;97094;-68
2023/10/12 09:56:33;;;;;;;;;7.00;6.00;;;;;42.06;28.78;98507.25;6239707;28;96537;-68
2023/10/12 09:59:39;;;;;;;;;5.20;5.20;;;;;42.53;28.46;98490.66;6240495;28;96567;-68
2023/10/12 10:02:44;;;;;;;;;4.40;4.00;;;;;43.14;27.36;98484.97;6240033;28;96821;-68
2023/10/12 10:05:54;;;;;;;;;7.60;6.00;;;;;43.32;27.56;98498.63;6263901;27;96294;-68
2023/10/12 10:09:19;;;;;;;;;5.60;5.00;;;;;43.52;27.56;98490.72;6247418;27;96637;-69
2023/10/12 10:12:24;;;;;;;;;5.00;5.00;;;;;43.84;27.87;98491.78;6264836;27;96382;-69
2023/10/12 10:15:36;;;;;;;;;6.00;5.00;;;;;43.88;26.74;98498.16;6263983;27;96433;-68
2023/10/12 10:18:56;;;;;;;;;5.60;5.00;;;;;43.69;27.17;98488.59;6262858;27;96570;-68
2023/10/12 10:22:11;;;;;;;;;6.00;5.00;;;;;44.17;26.69;98498.00;6263744;27;97061;-68
2023/10/12 10:25:18;;;;;;;;;5.40;5.00;;;;;44.16;26.83;98488.69;6264014;27;96666;-72
2023/10/12 10:28:24;;;;;;;;;6.00;6.00;;;;;44.04;27.50;98498.00;6263710;27;96676;-72
2023/10/12 10:31:28;;;;;;;;;6.60;5.00;;;;;43.86;27.27;98501.44;6263814;27;96568;-72
2023/10/12 10:34:34;;;;;;;;;8.00;8.00;;;;;43.65;27.29;98489.94;6262831;27;96513;-72
2023/10/12 10:37:40;;;;;;;;;6.00;5.00;;;;;43.48;29.01;98478.69;6264491;27;97958;-71
2023/10/12 10:40:45;;;;;;;;;7.00;6.00;;;;;43.21;28.78;98495.28;6264805;27;96945;-72
2023/10/12 10:43:51;;;;;;;;;7.00;7.00;;;;;42.93;28.98;98498.94;6238907;27;96826;-72
2023/10/12 10:46:57;;;;;;;;;6.00;5.00;;;;;42.71;29.57;98482.53;6215709;28;96730;-72
2023/10/12 10:50:03;;;;;;;;;6.75;5.00;;;;;42.18;29.75;98481.03;6214892;28;96725;-72
2023/10/12 10:53:08;;;;;;;;;6.60;5.60;;;;;41.47;31.68;98494.03;6215373;28;96984;-73
2023/10/12 10:56:16;;;;;;;;;6.00;5.60;;;;;40.99;33.62;98496.63;6196862;28;98095;-72
2023/10/12 10:59:19;;;;;;;;;6.00;5.75;;;;;41.66;35.00;98500.88;6217430;28;96668;-73
2023/10/12 11:02:22;;;;;;;;;7.00;6.00;;;;;41.20;34.63;98507.50;6254012;27;96367;-73
2023/10/12 11:05:28;;;;;;;;;6.00;6.00;;;;;41.47;34.89;98516.66;6238997;27;97293;-72
2023/10/12 11:08:32;;;;;;;;;7.00;7.00;;;;;41.81;34.22;98519.13;6239156;28;96422;-72
2023/10/12 11:11:38;;;;;;;;;7.80;6.00;;;;;41.53;33.63;98505.63;6239849;28;97428;-72
2023/10/12 11:14:52;;;;;;;;;5.00;5.00;;;;;42.01;33.12;98507.78;6234701;27;96685;-73
2023/10/12 11:18:04;;;;;;;;;6.00;6.00;;;;;41.55;33.27;98502.34;6221804;28;98198;-73
2023/10/12 11:21:11;;;;;;;;;6.00;5.00;;;;;41.67;34.48;98493.19;6197127;28;97484;-72
2023/10/12 11:24:14;;;;;;;;;6.00;6.00;;;;;41.37;34.47;98485.75;6223877;27;96500;-71
2023/10/12 11:27:30;;;;;;;;;8.00;7.00;;;;;41.15;35.51;98502.38;6238731;28;96680;-72
2023/10/12 11:30:35;;;;;;;;;7.00;5.00;;;;;40.53;37.70;98498.28;6238439;28;96556;-71
2023/10/12 11:33:38;;;;;;;;;8.00;8.00;;;;;39.35;40.95;98500.50;6221229;28;96500;-70
2023/10/12 11:36:45;;;;;;;;;6.60;6.00;;;;;37.81;47.42;98487.47;6264734;27;96409;-70
2023/10/12 11:39:50;;;;;;;;;5.00;5.00;;;;;37.06;50.65;98489.81;6227420;28;96588;-72
2023/10/12 11:42:54;;;;;;;;;8.00;7.00;;;;;36.62;52.66;98495.97;6239728;28;96277;-70
2023/10/12 11:46:01;;;;;;;;;7.00;7.00;;;;;36.11;55.54;98485.16;6239380;27;98695;-71
2023/10/12 11:49:10;;;;;;;;;6.00;5.00;;;;;36.37;55.19;98498.78;6264792;27;96270;-70
2023/10/12 11:52:23;;;;;;;;;7.00;7.00;;;;;37.19;54.00;98494.59;6245453;27;98637;-70
2023/10/12 11:55:31;;;;;;;;;8.00;6.00;;;;;37.28;49.16;98502.63;6214734;28;97335;-70
2023/10/12 11:58:35;;;;;;;;;5.00;5.00;;;;;37.39;47.88;98505.41;6220054;28;96250;-70
2023/10/12 12:01:40;;;;;;;;;7.00;5.00;;;;;37.38;48.47;98520.66;6219490;28;96610;-70
2023/10/12 12:04:43;;;;;;;;;6.00;5.00;;;;;37.15;49.45;98509.91;6217700;27;97255;-70
2023/10/12 12:08:10;;;;;;;;;6.40;6.40;;;;;37.44;47.71;98528.25;6204083;28;97040;-70
2023/10/12 12:11:19;;;;;;;;;6.00;5.20;;;;;36.90;48.65;98538.03;6223745;28;96587;-70
2023/10/12 12:14:22;;;;;;;;;6.00;6.00;;;;;36.10;51.35;98542.47;6216719;27;97123;-70
2023/10/12 12:17:26;;;;;;;;;6.00;5.40;;;;;35.36;54.69;98555.09;6234524;27;96441;-70
2023/10/12 12:20:38;;;;;;;;;6.20;6.20;;;;;34.51;60.28;98546.13;6198043;28;97428;-69
2023/10/12 12:23:47;;;;;;;;;6.00;5.40;;;;;33.87;64.79;98548.34;6232793;28;96609;-69
2023/10/12 12:26:52;;;;;;;;;7.00;6.00;;;;;33.78;66.78;98544.25;6240853;27;96607;-69
2023/10/12 12:29:57;;;;;;;;;6.00;5.00;;;;;33.79;67.28;98543.88;6233954;28;96933;-69
2023/10/12 12:33:16;;;;;;;;;6.80;6.00;;;;;33.65;70.18;98554.06;6213819;28;97085;-70
2023/10/12 12:36:22;;;;;;;;;7.00;6.40;;;;;33.16;73.23;98551.47;6220689;28;96541;-69
2023/10/12 12:39:32;;;;;;;;;7.00;6.00;;;;;32.62;74.46;98539.50;6237184;28;96464;-70
2023/10/12 12:42:35;;;;;;;;;7.40;7.00;;;;;32.29;77.38;98558.91;6236671;28;97351;-71
2023/10/12 12:45:40;;;;;;;;;5.00;5.00;;;;;32.38;78.39;98564.22;6230796;27;96291;-71
2023/10/12 12:48:45;;;;;;;;;7.50;6.50;;;;;32.48;78.09;98546.84;6238229;27;96421;-71
2023/10/12 12:51:50;;;;;;;;;7.00;7.00;;;;;32.26;79.05;98545.69;6236200;28;96499;-71
2023/10/12 12:54:55;;;;;;;;;7.00;6.75;;;;;31.69;80.96;98550.25;6241834;27;96222;-69
2023/10/12 12:57:59;;;;;;;;;7.80;6.20;;;;;31.24;83.97;98562.03;6233314;28;97256;-70
2023/10/12 13:01:03;;;;;;;;;8.00;7.40;;;;;30.77;87.60;98562.19;6220085;28;97029;-70
2023/10/12 13:04:08;;;;;;;;;8.00;6.60;;;;;30.50;88.68;98568.66;6233060;28;96653;-69
2023/10/12 13:07:14;;;;;;;;;8.75;7.75;;;;;30.18;91.16;98578.97;6244179;27;96913;-70
2023/10/12 13:10:21;;;;;;;;;7.25;7.00;;;;;30.03;90.43;98568.66;6219200;28;96775;-70
2023/10/12 13:13:24;;;;;;;;;8.60;7.60;;;;;29.52;94.25;98564.84;6235732;28;97201;-70
2023/10/12 13:16:27;;;;;;;;;6.40;6.40;;;;;29.32;95.38;98563.09;6233785;27;96360;-69
2023/10/12 13:19:32;;;;;;;;;7.25;7.00;;;;;29.33;96.35;98568.28;6234920;28;96533;-70
2023/10/12 13:22:36;;;;;;;;;8.00;8.00;;;;;29.46;97.17;98589.31;6220138;28;97476;-70
2023/10/12 13:25:40;;;;;;;;;7.00;6.00;;;;;29.37;96.65;98594.19;6206014;27;98178;-70
2023/10/12 13:28:44;;;;;;;;;7.00;7.00;;;;;29.09;96.75;98605.22;6238439;27;96486;-69
2023/10/12 13:31:47;;;;;;;;;6.40;6.40;;;;;29.21;96.48;98593.31;6234152;28;96329;-69
2023/10/12 13:34:51;;;;;;;;;6.80;6.20;;;;;29.19;95.94;98590.06;6239521;27;97133;-69
2023/10/12 13:37:54;;;;;;;;;8.33;7.00;;;;;29.14;96.29;98579.19;6247339;27;96478;-69
2023/10/12 13:41:01;;;;;;;;;7.00;6.00;;;;;29.38;95.79;98581.13;6232891;28;96465;-69
2023/10/12 13:44:06;;;;;;;;;7.00;7.00;;;;;29.61;95.40;98585.78;6240705;28;96338;-69
2023/10/12 13:47:12;;;;;;;;;7.00;6.25;;;;;29.60;94.88;98588.91;6244670;27;96336;-69
2023/10/12 13:50:18;;;;;;;;;6.00;6.00;;;;;29.26;94.27;98587.50;6220994;28;96576;-69
2023/10/12 13:53:24;;;;;;;;;6.00;5.40;;;;;28.82;95.56;98597.66;6239189;28;96586;-69
2023/10/12 13:56:30;;;;;;;;;6.00;5.20;;;;;28.60;97.01;98589.78;6218039;28;98149;-71
2023/10/12 13:59:33;;;;;;;;;7.25;7.00;;;;;28.38;98.99;98594.66;6205400;28;98687;-72
2023/10/12 14:02:36;;;;;;;;;8.00;8.00;;;;;28.37;98.93;98589.44;6240095;28;96315;-71
2023/10/12 14:05:40;;;;;;;;;8.00;7.00;;;;;28.51;98.92;98592.66;6240076;27;96554;-70
2023/10/12 14:08:43;;;;;;;;;7.40;6.40;;;;;28.45;99.28;98591.28;6237574;27;96884;-72
2023/10/12 14:11:51;;;;;;;;;8.00;7.00;;;;;28.13;100.00;98592.19;6218005;28;96636;-71
2023/10/12 14:14:54;;;;;;;;;7.00;6.00;;;;;27.94;100.00;98590.75;6242342;27;96860;-71
2023/10/12 14:17:59;;;;;;;;;8.00;7.25;;;;;27.69;100.00;98588.22;6222038;28;97085;-70
2023/10/12 14:21:02;;;;;;;;;9.00;7.00;;;;;27.48;100.00;98589.03;6210177;28;96682;-71
2023/10/12 14:24:07;;;;;;;;;8.00;7.00;;;;;27.26;100.00;98600.50;6238231;28;96535;-71
2023/10/12 14:27:12;;;;;;;;;8.00;7.60;;;;;26.85;100.00;98575.53;6219212;28;97278;-71
2023/10/12 14:30:15;;;;;;;;;9.50;9.50;;;;;26.66;100.00;98607.22;6237228;28;96590;-70
2023/10/12 14:33:22;;;;;;;;;7.25;7.00;;;;;26.42;100.00;98614.50;6237801;28;96508;-71
2023/10/12 14:36:25;;;;;;;;;10.80;9.00;;;;;26.12;100.00;98616.38;6226834;27;96704;-72
2023/10/12 14:39:29;;;;;;;;;7.60;7.20;;;;;26.02;100.00;98619.47;6237067;28;96911;-70
2023/10/12 14:42:36;;;;;;;;;8.80;8.00;;;;;25.90;100.00;98619.38;6238144;28;96490;-71
2023/10/12 14:45:43;;;;;;;;;8.40;6.60;;;;;25.68;100.00;98629.47;6207678;27;97086;-70
2023/10/12 14:48:49;;;;;;;;;7.00;7.00;;;;;25.64;100.00;98625.75;6257118;27;96811;-72
2023/10/12 14:51:53;;;;;;;;;9.60;9.00;;;;;25.41;100.00;98630.56;6265197;27;96387;-71
2023/10/12 14:54:57;;;;;;;;;10.00;9.00;;;;;25.33;100.00;98627.81;6223479;27;96878;-71
2023/10/12 14:58:03;;;;;;;;;10.00;9.00;;;;;25.08;100.00;98637.69;6232918;28;97612;-71
2023/10/12 15:01:10;;;;;;;;;9.60;8.40;;;;;24.83;100.00;98632.91;6232849;27;96775;-73